This is the latest recevied weather packets stored in our database for station/object KC7YCE. If no packets are shown the sender has not sent any weather packets the latest 10 day(s).
| Time | Temp. | Humidity | Pressure | Rain* | Wind** | Luminosity | Snow |
|---|---|---|---|---|---|---|---|
| 1777913418 | 13.33° C | 34% | 1017.3 hPa | 0 mm | - | - | - |
| 1777912819 | 12.78° C | 34% | 1017.3 hPa | 0 mm | - | - | - |
| 1777911618 | 12.22° C | 38% | 1017.4 hPa | 0 mm | - | - | - |
| 1777911018 | 12.22° C | 36% | 1017.6 hPa | 0 mm | - | - | - |
| 1777909789 | 11.11° C | 39% | 1017.7 hPa | 0 mm | - | - | - |
| 1777909188 | 11.11° C | 38% | 1017.8 hPa | 0 mm | - | - | - |
| 1777908588 | 11.67° C | 37% | 1017.9 hPa | 0 mm | - | - | - |
| 1777907988 | 11.11° C | 37% | 1017.9 hPa | 0 mm | - | - | - |
| 1777907388 | 11.67° C | 35% | 1017.9 hPa | 0 mm | - | - | - |
| 1777906788 | 10.56° C | 38% | 1018 hPa | 0 mm | - | - | - |
| 1777906188 | 10° C | 39% | 1018.1 hPa | 0 mm | - | - | - |
| 1777905588 | 10° C | 41% | 1018.1 hPa | 0 mm | - | - | - |
| 1777904988 | 9.44° C | 44% | 1018 hPa | 0 mm | - | - | - |
| 1777904388 | 7.78° C | 47% | 1018.1 hPa | 0 mm | - | - | - |
| 1777903787 | 6.67° C | 51% | 1018.3 hPa | 0 mm | - | - | - |
| 1777903188 | 5.56° C | 51% | 1018.3 hPa | 0 mm | - | - | - |
| 1777902587 | 4.44° C | 55% | 1018.3 hPa | 0 mm | - | - | - |
| 1777901987 | 4.44° C | 56% | 1018.4 hPa | 0 mm | - | - | - |
| 1777901387 | 3.89° C | 56% | 1018.4 hPa | 0 mm | - | - | - |
| 1777900787 | 3.33° C | 58% | 1018.3 hPa | 0 mm | - | - | - |
| 1777899587 | 2.22° C | 65% | 1018.2 hPa | 0 mm | - | - | - |
| 1777898987 | 1.67° C | 65% | 1018 hPa | 0 mm | - | - | - |
| 1777898357 | 1.11° C | 67% | 1018 hPa | 0 mm | - | - | - |
| 1777897727 | 1.11° C | 67% | 1018 hPa | 0 mm | - | - | - |
| 1777897127 | 1.11° C | 68% | 1017.9 hPa | 0 mm | - | - | - |
* Rain latest hour (hover to see other rain measurements)
** Current wind speed in m/s (hover to see current wind gust speed)